createdAt,value
2022-07-27T00:00:04.131Z,0.00
2022-07-27T00:01:04.190Z,0.00
2022-07-27T00:02:04.127Z,0.00
2022-07-27T00:03:04.123Z,0.00
2022-07-27T00:04:04.198Z,0.00
2022-07-27T00:05:04.124Z,0.00
2022-07-27T00:06:04.129Z,0.00
2022-07-27T00:07:04.121Z,0.00
2022-07-27T00:08:04.124Z,0.00
2022-07-27T00:09:04.118Z,0.00
2022-07-27T00:10:04.127Z,0.00
2022-07-27T00:11:04.122Z,0.00
2022-07-27T00:12:04.123Z,0.00
2022-07-27T00:13:04.120Z,0.00
2022-07-27T00:14:04.138Z,0.00
2022-07-27T00:15:04.121Z,0.00
2022-07-27T00:16:04.139Z,0.00
2022-07-27T00:17:04.115Z,0.00
2022-07-27T00:18:04.125Z,0.00
2022-07-27T00:19:04.116Z,0.00
2022-07-27T00:20:04.129Z,0.00
2022-07-27T00:21:04.116Z,0.00
2022-07-27T00:22:04.118Z,0.00
2022-07-27T00:23:04.116Z,0.00
2022-07-27T00:24:04.118Z,0.00
2022-07-27T00:25:04.112Z,0.00
2022-07-27T00:26:04.115Z,0.00
2022-07-27T00:27:04.115Z,0.00
2022-07-27T00:28:04.125Z,0.00
2022-07-27T00:29:04.129Z,0.00
2022-07-27T00:30:04.115Z,0.00
2022-07-27T00:31:04.191Z,0.00
2022-07-27T00:32:04.111Z,0.00
2022-07-27T00:33:04.117Z,0.00
2022-07-27T00:34:04.112Z,0.00
2022-07-27T00:35:04.110Z,0.00
2022-07-27T00:36:04.108Z,0.00
2022-07-27T00:37:04.109Z,0.00
2022-07-27T00:38:04.133Z,0.00
2022-07-27T00:39:04.109Z,0.00
2022-07-27T00:40:04.109Z,0.00
2022-07-27T00:41:04.106Z,0.00
2022-07-27T00:42:04.109Z,0.00
2022-07-27T00:43:04.109Z,0.00
2022-07-27T00:44:04.106Z,0.00
2022-07-27T00:45:04.105Z,0.00
2022-07-27T00:46:04.742Z,0.00
2022-07-27T00:47:04.190Z,0.00
2022-07-27T00:48:04.104Z,0.00
2022-07-27T00:49:04.144Z,0.00
2022-07-27T00:50:04.111Z,0.00
2022-07-27T00:51:04.101Z,0.00
2022-07-27T00:52:04.100Z,0.00
2022-07-27T00:53:04.099Z,0.00
2022-07-27T00:54:04.107Z,0.00
2022-07-27T00:55:04.108Z,0.00
2022-07-27T00:56:04.102Z,0.00
2022-07-27T00:57:04.101Z,0.00
2022-07-27T00:58:04.102Z,0.00
2022-07-27T00:59:04.298Z,0.00
2022-07-27T01:00:04.100Z,0.00
2022-07-27T01:01:04.098Z,0.00
2022-07-27T01:02:04.208Z,0.00
2022-07-27T01:03:09.255Z,0.00
2022-07-27T01:04:04.096Z,0.00
2022-07-27T01:05:04.094Z,0.00
2022-07-27T01:06:04.100Z,0.00
2022-07-27T01:07:04.095Z,0.00
2022-07-27T01:08:04.094Z,0.00
2022-07-27T01:09:04.093Z,0.00
2022-07-27T01:10:04.093Z,0.00
2022-07-27T01:11:04.094Z,0.00
2022-07-27T01:12:04.094Z,0.00
2022-07-27T01:13:04.093Z,0.00
2022-07-27T01:14:04.094Z,0.00
2022-07-27T01:15:04.092Z,0.00
2022-07-27T01:16:04.149Z,0.00
2022-07-27T01:17:04.088Z,0.00
2022-07-27T01:18:04.089Z,0.00
2022-07-27T01:19:04.088Z,0.00
2022-07-27T01:20:04.089Z,0.00
2022-07-27T01:21:04.099Z,0.00
2022-07-27T01:22:04.087Z,0.00
2022-07-27T01:23:04.088Z,0.00
2022-07-27T01:24:04.092Z,0.00
2022-07-27T01:25:04.091Z,0.00
2022-07-27T01:26:04.090Z,0.00
2022-07-27T01:27:04.088Z,0.00
2022-07-27T01:28:04.087Z,0.00
2022-07-27T01:29:04.088Z,0.00
2022-07-27T01:30:04.083Z,0.00
2022-07-27T01:31:04.144Z,0.00
2022-07-27T01:32:04.084Z,0.00
2022-07-27T01:33:04.087Z,0.00
2022-07-27T01:34:04.085Z,0.00
2022-07-27T01:35:04.083Z,0.00
2022-07-27T01:36:04.079Z,0.00
2022-07-27T01:37:04.082Z,0.00
2022-07-27T01:38:04.080Z,0.00
2022-07-27T01:39:04.082Z,0.00
2022-07-27T01:40:04.079Z,0.00
2022-07-27T01:41:04.078Z,0.00
2022-07-27T01:42:04.082Z,0.00
2022-07-27T01:43:04.078Z,0.00
2022-07-27T01:44:04.075Z,0.00
2022-07-27T01:45:04.079Z,0.00
2022-07-27T01:46:04.161Z,0.00
2022-07-27T01:47:04.097Z,0.00
2022-07-27T01:48:04.078Z,0.00
2022-07-27T01:49:04.169Z,0.00
2022-07-27T01:50:04.084Z,0.00
2022-07-27T01:51:04.077Z,0.00
2022-07-27T01:52:04.074Z,0.00
2022-07-27T01:53:04.076Z,0.00
2022-07-27T01:54:04.073Z,0.00
2022-07-27T01:55:04.075Z,0.00
2022-07-27T01:56:04.071Z,0.00
2022-07-27T01:57:04.072Z,0.00
2022-07-27T01:58:04.075Z,0.00
2022-07-27T01:59:04.075Z,0.00
2022-07-27T02:00:04.082Z,0.00
2022-07-27T02:01:04.078Z,0.00
2022-07-27T02:02:04.098Z,0.00
2022-07-27T02:03:04.074Z,0.00
2022-07-27T02:04:04.068Z,0.00
2022-07-27T02:05:04.124Z,0.00
2022-07-27T02:06:04.070Z,0.00
2022-07-27T02:07:04.069Z,0.00
2022-07-27T02:08:04.069Z,0.00
2022-07-27T02:09:04.071Z,0.00
2022-07-27T02:10:04.065Z,0.00
2022-07-27T02:11:04.065Z,0.00
2022-07-27T02:12:04.063Z,0.00
2022-07-27T02:13:21.987Z,0.00
2022-07-27T02:14:04.115Z,0.00
2022-07-27T02:15:05.825Z,0.00
2022-07-27T02:16:04.098Z,0.00
2022-07-27T02:17:04.063Z,0.00
2022-07-27T02:18:04.059Z,0.00
2022-07-27T02:19:04.872Z,0.00
2022-07-27T02:20:04.061Z,0.00
2022-07-27T02:21:04.062Z,0.00
2022-07-27T02:22:04.057Z,0.00
2022-07-27T02:23:04.060Z,0.00
2022-07-27T02:24:04.055Z,0.00
2022-07-27T02:25:04.060Z,0.00
2022-07-27T02:26:04.057Z,0.00
2022-07-27T02:27:04.054Z,0.00
2022-07-27T02:28:04.054Z,0.00
2022-07-27T02:29:04.053Z,0.00
2022-07-27T02:30:04.054Z,0.00
2022-07-27T02:31:04.053Z,0.00
2022-07-27T02:32:04.050Z,0.00
2022-07-27T02:33:04.224Z,0.00
2022-07-27T02:34:04.050Z,0.00
2022-07-27T02:35:18.640Z,0.00
2022-07-27T02:36:04.050Z,0.00
2022-07-27T02:37:04.056Z,0.00
2022-07-27T02:38:04.047Z,0.00
2022-07-27T02:39:04.047Z,0.00
2022-07-27T02:40:04.048Z,0.00
2022-07-27T02:41:04.047Z,0.00
2022-07-27T02:42:04.046Z,0.00
2022-07-27T02:43:04.041Z,0.00
2022-07-27T02:44:04.052Z,0.00
2022-07-27T02:45:04.041Z,0.00
2022-07-27T02:46:04.127Z,0.00
2022-07-27T02:47:04.038Z,0.00
2022-07-27T02:48:04.112Z,0.00
2022-07-27T02:49:04.147Z,0.00
2022-07-27T02:50:04.037Z,0.00
2022-07-27T02:51:04.033Z,0.00
2022-07-27T02:52:04.028Z,0.00
2022-07-27T02:53:04.035Z,0.00
2022-07-27T02:54:04.024Z,0.00
2022-07-27T02:55:04.025Z,0.00
2022-07-27T02:56:04.038Z,0.00
2022-07-27T02:57:04.019Z,0.00
2022-07-27T02:58:04.016Z,0.00
2022-07-27T02:59:04.012Z,0.00
2022-07-27T03:00:04.010Z,0.00
2022-07-27T03:01:04.053Z,0.00
2022-07-27T03:02:04.045Z,0.00
2022-07-27T03:03:04.008Z,0.00
2022-07-27T03:04:04.031Z,0.00
2022-07-27T03:05:04.002Z,0.00
2022-07-27T03:06:03.996Z,0.00
2022-07-27T03:07:03.996Z,0.00
2022-07-27T03:08:03.998Z,0.00
2022-07-27T03:09:03.994Z,0.00
2022-07-27T03:10:03.988Z,0.00
2022-07-27T03:11:03.990Z,0.00
2022-07-27T03:12:03.980Z,0.00
2022-07-27T03:13:03.986Z,0.00
2022-07-27T03:14:03.976Z,0.00
2022-07-27T03:15:03.978Z,0.00
2022-07-27T03:16:04.009Z,0.00
2022-07-27T03:17:03.973Z,0.00
2022-07-27T03:18:03.968Z,0.00
2022-07-27T03:19:03.972Z,0.00
2022-07-27T03:20:03.978Z,0.00
2022-07-27T03:21:03.963Z,0.00
2022-07-27T03:22:03.959Z,0.00
2022-07-27T03:23:03.959Z,0.00
2022-07-27T03:24:03.953Z,0.00
2022-07-27T03:25:03.953Z,0.00
2022-07-27T03:26:03.949Z,0.00
2022-07-27T03:27:03.949Z,0.00
2022-07-27T03:28:04.492Z,0.00
2022-07-27T03:29:03.947Z,0.00
2022-07-27T03:30:04.381Z,0.00
2022-07-27T03:31:04.045Z,0.00
2022-07-27T03:32:03.936Z,4.00
2022-07-27T03:33:03.933Z,4.00
2022-07-27T03:34:03.929Z,0.00
2022-07-27T03:35:03.928Z,0.00
2022-07-27T03:36:03.923Z,0.00
2022-07-27T03:37:03.923Z,4.00
2022-07-27T03:38:03.920Z,4.00
2022-07-27T03:39:06.136Z,4.00
2022-07-27T03:40:03.914Z,0.00
2022-07-27T03:41:03.915Z,4.00
2022-07-27T03:42:03.916Z,4.00
2022-07-27T03:43:03.910Z,4.00
2022-07-27T03:44:03.904Z,4.00
2022-07-27T03:45:03.905Z,4.00
2022-07-27T03:46:04.018Z,4.00
2022-07-27T03:47:03.916Z,4.00
2022-07-27T03:48:03.897Z,8.00
2022-07-27T03:49:14.273Z,4.00
2022-07-27T03:50:03.891Z,8.00
2022-07-27T03:51:03.886Z,8.00
2022-07-27T03:52:03.887Z,4.00
2022-07-27T03:53:03.892Z,8.00
2022-07-27T03:54:03.879Z,8.00
2022-07-27T03:55:03.883Z,8.00
2022-07-27T03:56:03.877Z,12.00
2022-07-27T03:57:03.872Z,12.00
2022-07-27T03:58:03.867Z,12.00
2022-07-27T03:59:03.868Z,12.00
2022-07-27T04:00:03.863Z,12.00
2022-07-27T04:01:03.901Z,16.00
2022-07-27T04:02:03.896Z,12.00
2022-07-27T04:03:04.064Z,16.00
2022-07-27T04:04:03.853Z,16.00
2022-07-27T04:05:03.853Z,20.00
2022-07-27T04:06:03.848Z,20.00
2022-07-27T04:07:03.855Z,20.00
2022-07-27T04:08:03.841Z,20.00
2022-07-27T04:09:08.522Z,24.00
2022-07-27T04:10:03.871Z,24.00
2022-07-27T04:11:03.838Z,24.00
2022-07-27T04:12:03.833Z,24.00
2022-07-27T04:13:03.884Z,28.00
2022-07-27T04:14:03.857Z,28.00
2022-07-27T04:15:03.848Z,28.00
2022-07-27T04:16:03.845Z,32.00
2022-07-27T04:17:03.966Z,28.00
2022-07-27T04:18:03.816Z,32.00
2022-07-27T04:19:03.966Z,32.00
2022-07-27T04:20:03.808Z,32.00
2022-07-27T04:21:03.808Z,36.00
2022-07-27T04:22:06.424Z,36.00
2022-07-27T04:23:06.428Z,40.00
2022-07-27T04:34:30.608Z,56.00
2022-07-27T04:37:30.600Z,56.00
2022-07-27T04:38:30.594Z,56.00
2022-07-27T04:39:30.592Z,60.00
2022-07-27T04:40:30.589Z,60.00
2022-07-27T04:42:30.583Z,64.00
2022-07-27T04:43:30.587Z,68.00
2022-07-27T04:44:30.640Z,72.00
2022-07-27T04:45:30.756Z,68.00
2022-07-27T04:46:30.712Z,72.00
2022-07-27T04:49:23.193Z,112.00
2022-07-27T04:50:23.130Z,120.00
2022-07-27T04:51:23.127Z,108.00
2022-07-27T04:52:26.513Z,100.00
2022-07-27T04:53:23.121Z,116.00
2022-07-27T04:54:23.116Z,140.00
2022-07-27T04:55:23.133Z,136.00
2022-07-27T04:56:23.125Z,128.00
2022-07-27T04:57:23.136Z,268.00
2022-07-27T04:58:23.112Z,268.00
2022-07-27T04:59:23.109Z,248.00
2022-07-27T05:00:23.106Z,224.00
2022-07-27T05:01:23.360Z,192.00
2022-07-27T05:02:23.101Z,168.00
2022-07-27T05:03:23.100Z,144.00
2022-07-27T05:04:23.124Z,124.00
2022-07-27T05:05:23.091Z,132.00
2022-07-27T05:06:23.099Z,132.00
2022-07-27T05:07:23.080Z,120.00
2022-07-27T05:08:23.080Z,132.00
2022-07-27T05:09:23.075Z,124.00
2022-07-27T05:10:23.070Z,140.00
2022-07-27T05:11:23.068Z,144.00
2022-07-27T05:12:23.063Z,148.00
2022-07-27T05:13:23.068Z,144.00
2022-07-27T05:14:23.065Z,168.00
2022-07-27T05:15:23.052Z,196.00
2022-07-27T05:16:28.291Z,240.00
2022-07-27T05:17:23.050Z,276.00
2022-07-27T05:18:23.046Z,304.00
2022-07-27T05:19:23.046Z,336.00
2022-07-27T05:20:23.042Z,360.00
2022-07-27T05:21:23.036Z,380.00
2022-07-27T05:22:23.030Z,396.00
2022-07-27T05:23:23.030Z,432.00
2022-07-27T05:24:23.024Z,444.00
2022-07-27T05:25:23.022Z,408.00
2022-07-27T05:26:23.020Z,360.00
2022-07-27T05:27:23.016Z,336.00
2022-07-27T05:28:23.010Z,316.00
2022-07-27T05:29:23.012Z,296.00
2022-07-27T05:30:23.010Z,272.00
2022-07-27T05:31:23.028Z,228.00
2022-07-27T05:32:22.997Z,220.00
2022-07-27T05:33:22.998Z,172.00
2022-07-27T05:34:22.993Z,180.00
2022-07-27T05:35:22.991Z,196.00
2022-07-27T05:36:22.986Z,216.00
2022-07-27T05:37:22.986Z,228.00
2022-07-27T05:38:22.980Z,240.00
2022-07-27T05:39:22.981Z,256.00
2022-07-27T05:40:22.973Z,260.00
2022-07-27T05:41:22.978Z,264.00
2022-07-27T05:42:22.972Z,236.00
2022-07-27T05:43:22.965Z,240.00
2022-07-27T05:44:22.965Z,268.00
2022-07-27T05:45:23.034Z,312.00
2022-07-27T05:46:23.079Z,356.00
2022-07-27T05:47:22.953Z,368.00
2022-07-27T05:48:22.952Z,364.00
2022-07-27T05:49:23.032Z,376.00
2022-07-27T05:50:22.944Z,396.00
2022-07-27T05:51:22.943Z,424.00
2022-07-27T05:52:22.937Z,440.00
2022-07-27T05:53:22.938Z,444.00
2022-07-27T05:54:22.930Z,436.00
2022-07-27T05:55:22.927Z,440.00
2022-07-27T05:56:22.924Z,432.00
2022-07-27T05:57:22.922Z,432.00
2022-07-27T05:58:23.157Z,428.00
2022-07-27T05:59:22.919Z,416.00
2022-07-27T06:00:22.912Z,400.00
2022-07-27T06:01:22.987Z,388.00
2022-07-27T06:02:22.907Z,380.00
2022-07-27T06:03:22.944Z,392.00
2022-07-27T06:04:22.900Z,372.00
2022-07-27T06:05:22.899Z,368.00
2022-07-27T06:06:22.899Z,388.00
2022-07-27T06:07:22.891Z,400.00
2022-07-27T06:08:22.888Z,416.00
2022-07-27T06:09:22.887Z,432.00
2022-07-27T06:10:22.883Z,436.00
2022-07-27T06:11:22.882Z,420.00
2022-07-27T06:12:22.877Z,400.00
2022-07-27T06:13:26.693Z,376.00
2022-07-27T06:14:22.869Z,360.00
2022-07-27T06:15:22.869Z,356.00
2022-07-27T06:16:22.920Z,356.00
2022-07-27T06:17:22.866Z,344.00
2022-07-27T06:18:22.876Z,348.00
2022-07-27T06:19:22.866Z,360.00
2022-07-27T06:20:22.853Z,352.00
2022-07-27T06:21:22.852Z,356.00
2022-07-27T06:22:22.861Z,364.00
2022-07-27T06:23:22.847Z,372.00
2022-07-27T06:24:22.840Z,360.00
2022-07-27T06:25:22.840Z,364.00
2022-07-27T06:26:22.839Z,360.00
2022-07-27T06:27:27.172Z,352.00
2022-07-27T06:28:22.830Z,364.00
2022-07-27T06:29:22.830Z,360.00
2022-07-27T06:30:22.826Z,368.00
2022-07-27T06:31:22.884Z,348.00
2022-07-27T06:32:22.822Z,360.00
2022-07-27T06:33:22.821Z,360.00
2022-07-27T06:34:22.811Z,356.00
2022-07-27T06:35:22.811Z,344.00
2022-07-27T06:36:22.808Z,360.00
2022-07-27T06:37:22.806Z,360.00
2022-07-27T06:38:22.802Z,360.00
2022-07-27T06:39:22.800Z,360.00
2022-07-27T06:40:26.280Z,364.00
2022-07-27T06:41:22.792Z,364.00
2022-07-27T06:42:22.792Z,376.00
2022-07-27T06:43:22.788Z,360.00
2022-07-27T06:44:22.788Z,356.00
2022-07-27T06:45:22.784Z,372.00
2022-07-27T06:46:22.858Z,360.00
2022-07-27T06:47:25.987Z,360.00
2022-07-27T06:48:22.773Z,352.00
2022-07-27T06:49:22.826Z,360.00
2022-07-27T06:50:22.768Z,368.00
2022-07-27T06:51:22.764Z,368.00
2022-07-27T06:52:22.768Z,368.00
2022-07-27T06:53:22.778Z,360.00
2022-07-27T06:54:22.758Z,360.00
2022-07-27T06:55:22.757Z,372.00
2022-07-27T06:56:22.752Z,380.00
2022-07-27T06:57:22.749Z,376.00
2022-07-27T06:58:22.756Z,380.00
2022-07-27T06:59:22.751Z,392.00
2022-07-27T07:00:22.743Z,384.00
2022-07-27T07:01:22.802Z,396.00
2022-07-27T07:02:22.735Z,388.00
2022-07-27T07:03:22.789Z,412.00
2022-07-27T07:04:23.945Z,412.00
2022-07-27T07:05:22.726Z,400.00
2022-07-27T07:06:22.725Z,400.00
2022-07-27T07:07:22.721Z,420.00
2022-07-27T07:08:22.717Z,412.00
2022-07-27T07:09:22.715Z,428.00
2022-07-27T07:10:23.940Z,432.00
2022-07-27T07:11:22.713Z,436.00
2022-07-27T07:12:22.713Z,432.00
2022-07-27T07:13:22.705Z,444.00
2022-07-27T07:14:22.702Z,452.00
2022-07-27T07:15:22.696Z,456.00
2022-07-27T07:16:22.743Z,480.00
2022-07-27T07:17:22.699Z,492.00
2022-07-27T07:18:22.694Z,484.00
2022-07-27T07:19:22.700Z,504.00
2022-07-27T07:20:22.693Z,488.00
2022-07-27T07:21:22.693Z,496.00
2022-07-27T07:22:22.682Z,512.00
2022-07-27T07:23:22.681Z,508.00
2022-07-27T07:24:22.673Z,532.00
2022-07-27T07:25:22.677Z,544.00
2022-07-27T07:26:22.669Z,552.00
2022-07-27T07:27:22.666Z,560.00
2022-07-27T07:28:22.665Z,564.00
2022-07-27T07:29:22.664Z,576.00
2022-07-27T07:30:22.713Z,408.00
2022-07-27T07:31:22.779Z,648.00
2022-07-27T07:32:22.654Z,776.00
2022-07-27T07:33:22.652Z,720.00
2022-07-27T07:34:22.649Z,676.00
2022-07-27T07:35:22.646Z,600.00
2022-07-27T07:36:22.670Z,876.00
2022-07-27T07:37:22.684Z,752.00
2022-07-27T07:38:22.651Z,784.00
2022-07-27T07:39:24.679Z,480.00
2022-07-27T07:40:42.691Z,908.00
2022-07-27T07:41:22.635Z,992.00
2022-07-27T07:42:22.629Z,972.00
2022-07-27T07:43:22.628Z,976.00
2022-07-27T07:44:22.629Z,1296.00
2022-07-27T07:45:22.625Z,1740.00
2022-07-27T07:46:22.691Z,1480.00
2022-07-27T07:47:22.617Z,1252.00
2022-07-27T07:48:22.616Z,1332.00
2022-07-27T07:49:39.288Z,1800.00
2022-07-27T07:50:22.716Z,1932.00
2022-07-27T07:51:22.612Z,1684.00
2022-07-27T07:52:22.608Z,2156.00
2022-07-27T07:53:22.660Z,2652.00
2022-07-27T07:54:22.606Z,4848.00
2022-07-27T07:55:22.603Z,3916.00
2022-07-27T07:56:22.597Z,2160.00
2022-07-27T07:57:22.604Z,2312.00
2022-07-27T07:58:22.598Z,1816.00
2022-07-27T07:59:22.596Z,2260.00
2022-07-27T08:00:22.591Z,1644.00
2022-07-27T08:01:22.643Z,1260.00
2022-07-27T08:02:22.586Z,1780.00
2022-07-27T08:03:22.671Z,1764.00
2022-07-27T08:04:22.587Z,1172.00
2022-07-27T08:05:22.588Z,736.00
2022-07-27T08:06:22.580Z,1140.00
2022-07-27T08:07:22.578Z,892.00
2022-07-27T08:08:24.907Z,420.00
2022-07-27T08:09:22.573Z,1764.00
2022-07-27T08:10:22.570Z,2208.00
2022-07-27T08:11:22.567Z,2384.00
2022-07-27T08:12:22.583Z,3340.00
2022-07-27T08:13:22.789Z,5244.00
2022-07-27T08:14:22.566Z,5812.00
2022-07-27T08:15:34.620Z,29280.00
2022-07-27T08:16:22.611Z,900.00
2022-07-27T08:17:22.566Z,1912.00
2022-07-27T08:18:22.559Z,2728.00
2022-07-27T08:19:22.552Z,3808.00
2022-07-27T08:20:22.552Z,3052.00
2022-07-27T08:21:22.599Z,3260.00
2022-07-27T08:22:22.551Z,3240.00
2022-07-27T08:23:22.549Z,1608.00
2022-07-27T08:24:22.551Z,1088.00
2022-07-27T08:25:22.544Z,2424.00
2022-07-27T08:26:22.544Z,336.00
2022-07-27T08:27:22.545Z,260.00
2022-07-27T08:28:22.539Z,312.00
2022-07-27T08:29:23.280Z,392.00
2022-07-27T08:30:22.558Z,1080.00
2022-07-27T08:31:26.539Z,59744.00
2022-07-27T08:32:22.654Z,65216.00
2022-07-27T08:33:22.534Z,70208.00
2022-07-27T08:34:22.538Z,60096.00
2022-07-27T08:35:22.543Z,688.00
2022-07-27T08:36:22.527Z,2368.00
2022-07-27T08:37:22.533Z,44960.00
2022-07-27T08:38:22.529Z,70496.00
2022-07-27T08:40:05.350Z,73056.00
2022-07-27T08:40:40.606Z,61888.00
2022-07-27T08:41:22.590Z,68096.00
2022-07-27T08:42:22.529Z,44448.00
2022-07-27T08:43:25.150Z,66688.00
2022-07-27T08:44:22.536Z,45184.00
2022-07-27T08:45:22.524Z,64544.00
2022-07-27T08:46:22.648Z,65536.00
2022-07-27T08:47:22.526Z,66784.00
2022-07-27T08:48:22.523Z,1264.00
2022-07-27T08:49:28.689Z,60576.00
2022-07-27T08:50:22.523Z,56576.00
2022-07-27T08:51:22.606Z,51200.00
2022-07-27T08:52:22.520Z,47904.00
2022-07-27T08:53:22.525Z,37408.00
2022-07-27T08:54:22.521Z,22496.00
2022-07-27T08:55:22.523Z,13196.00
2022-07-27T08:56:22.521Z,4976.00
2022-07-27T08:57:22.525Z,5108.00
2022-07-27T08:58:22.521Z,3484.00
2022-07-27T08:59:22.518Z,980.00
2022-07-27T09:00:22.521Z,1152.00
2022-07-27T09:01:22.661Z,1360.00
2022-07-27T09:02:22.676Z,1324.00
2022-07-27T09:03:22.649Z,1252.00
2022-07-27T09:04:22.519Z,1060.00
2022-07-27T09:05:22.518Z,912.00
2022-07-27T09:06:22.518Z,688.00
2022-07-27T09:07:22.519Z,620.00
2022-07-27T09:08:22.527Z,584.00
2022-07-27T09:09:22.519Z,576.00
2022-07-27T09:10:22.517Z,536.00
2022-07-27T09:11:22.515Z,560.00
2022-07-27T09:12:22.514Z,572.00
2022-07-27T09:13:22.513Z,568.00
2022-07-27T09:14:22.516Z,624.00
2022-07-27T09:15:22.520Z,588.00
2022-07-27T09:16:22.595Z,568.00
2022-07-27T09:17:51.002Z,584.00
2022-07-27T09:18:22.551Z,628.00
2022-07-27T09:19:22.511Z,732.00
2022-07-27T09:20:22.554Z,904.00
2022-07-27T09:21:22.663Z,824.00
2022-07-27T09:22:22.519Z,1016.00
2022-07-27T09:23:22.505Z,1208.00
2022-07-27T09:24:45.664Z,1220.00
2022-07-27T09:25:44.900Z,1180.00
2022-07-27T09:26:31.957Z,1244.00
2022-07-27T09:27:22.499Z,1144.00
2022-07-27T09:28:22.502Z,1080.00
2022-07-27T09:29:22.498Z,1056.00
2022-07-27T09:30:22.497Z,1108.00
2022-07-27T09:31:22.667Z,1160.00
2022-07-27T09:32:22.495Z,1188.00
2022-07-27T09:33:22.495Z,1268.00
2022-07-27T09:34:22.495Z,1236.00
2022-07-27T09:35:22.492Z,1032.00
2022-07-27T09:36:22.493Z,852.00
2022-07-27T09:37:22.489Z,768.00
2022-07-27T09:38:22.491Z,624.00
2022-07-27T09:39:22.486Z,536.00
2022-07-27T09:40:25.591Z,392.00
2022-07-27T09:41:22.485Z,364.00
2022-07-27T09:44:43.295Z,304.00
2022-07-27T09:45:22.483Z,328.00
2022-07-27T09:46:22.523Z,340.00
2022-07-27T09:47:22.477Z,352.00
2022-07-27T09:48:22.479Z,352.00
2022-07-27T09:49:22.546Z,348.00
2022-07-27T09:50:22.483Z,360.00
2022-07-27T09:51:58.226Z,360.00
2022-07-27T09:52:22.476Z,372.00
2022-07-27T09:53:41.228Z,376.00
2022-07-27T09:54:22.467Z,412.00
2022-07-27T09:55:22.465Z,432.00
2022-07-27T09:56:22.467Z,464.00
2022-07-27T09:57:22.473Z,508.00
2022-07-27T09:58:22.462Z,576.00
2022-07-27T09:59:22.481Z,700.00
2022-07-27T10:00:22.476Z,760.00
2022-07-27T10:01:22.521Z,736.00
2022-07-27T10:02:22.528Z,724.00
2022-07-27T10:03:22.462Z,688.00
2022-07-27T10:04:22.525Z,696.00
2022-07-27T10:05:22.459Z,840.00
2022-07-27T10:06:22.460Z,868.00
2022-07-27T10:07:22.452Z,1016.00
2022-07-27T10:08:22.452Z,1028.00
2022-07-27T10:09:22.449Z,908.00
2022-07-27T10:10:22.447Z,728.00
2022-07-27T10:11:22.444Z,648.00
2022-07-27T10:12:23.546Z,572.00
2022-07-27T10:13:22.440Z,548.00
2022-07-27T10:14:22.444Z,512.00
2022-07-27T10:15:22.443Z,516.00
2022-07-27T10:16:22.503Z,512.00
2022-07-27T10:17:22.433Z,568.00
2022-07-27T10:18:22.435Z,708.00
2022-07-27T10:19:22.430Z,720.00
2022-07-27T10:20:22.429Z,828.00
2022-07-27T10:21:22.424Z,684.00
2022-07-27T10:22:22.426Z,656.00
2022-07-27T10:23:22.427Z,580.00
2022-07-27T10:24:22.435Z,580.00
2022-07-27T10:25:22.422Z,604.00
2022-07-27T10:26:22.420Z,568.00
2022-07-27T10:27:22.507Z,612.00
2022-07-27T10:28:22.418Z,584.00
2022-07-27T10:29:22.414Z,616.00
2022-07-27T10:30:23.986Z,624.00
2022-07-27T10:31:22.477Z,604.00
2022-07-27T10:32:22.412Z,548.00
2022-07-27T10:33:22.407Z,492.00
2022-07-27T10:34:22.406Z,492.00
2022-07-27T10:35:22.403Z,448.00
2022-07-27T10:36:22.405Z,472.00
2022-07-27T10:37:22.400Z,500.00
2022-07-27T10:38:22.404Z,520.00
2022-07-27T10:39:22.396Z,536.00
2022-07-27T10:40:22.400Z,592.00
2022-07-27T10:41:22.402Z,556.00
2022-07-27T10:42:22.397Z,544.00
2022-07-27T10:43:22.399Z,564.00
2022-07-27T10:44:22.391Z,588.00
2022-07-27T10:45:22.586Z,572.00
2022-07-27T10:46:22.435Z,632.00
2022-07-27T10:47:22.382Z,732.00
2022-07-27T10:48:22.382Z,776.00
2022-07-27T10:49:22.498Z,756.00
2022-07-27T10:50:22.390Z,672.00
2022-07-27T10:51:22.377Z,608.00
2022-07-27T10:52:22.378Z,484.00
2022-07-27T10:53:22.374Z,464.00
2022-07-27T10:54:22.374Z,460.00
2022-07-27T10:55:22.370Z,468.00
2022-07-27T10:56:22.369Z,476.00
2022-07-27T10:57:22.367Z,420.00
2022-07-27T10:58:22.369Z,428.00
2022-07-27T10:59:22.364Z,412.00
2022-07-27T11:00:22.369Z,424.00
2022-07-27T11:01:22.424Z,448.00
2022-07-27T11:02:22.360Z,528.00
2022-07-27T11:03:22.356Z,520.00
2022-07-27T11:04:22.379Z,500.00
2022-07-27T11:05:58.381Z,540.00
2022-07-27T11:07:24.809Z,700.00
2022-07-27T11:08:46.707Z,708.00
2022-07-27T11:10:22.345Z,676.00
2022-07-27T11:11:22.342Z,748.00
2022-07-27T11:12:22.341Z,824.00
2022-07-27T11:13:22.340Z,760.00
2022-07-27T11:14:30.803Z,804.00
2022-07-27T11:15:22.335Z,788.00
2022-07-27T11:16:24.403Z,780.00
2022-07-27T11:17:52.431Z,736.00
2022-07-27T11:18:22.376Z,700.00
2022-07-27T11:19:22.424Z,696.00
2022-07-27T11:20:22.332Z,764.00
2022-07-27T11:21:26.537Z,700.00
2022-07-27T11:22:39.631Z,720.00
2022-07-27T11:23:52.198Z,724.00
2022-07-27T11:24:22.322Z,768.00
2022-07-27T11:25:22.320Z,796.00
2022-07-27T11:26:22.326Z,780.00
2022-07-27T11:27:25.350Z,820.00
2022-07-27T11:28:22.325Z,868.00
2022-07-27T11:29:22.341Z,748.00
2022-07-27T11:30:22.422Z,720.00
2022-07-27T11:31:45.262Z,672.00
2022-07-27T11:32:22.312Z,744.00
2022-07-27T11:33:22.311Z,748.00
2022-07-27T11:34:22.309Z,708.00
2022-07-27T11:35:22.308Z,600.00
2022-07-27T11:36:22.304Z,532.00
2022-07-27T11:37:22.306Z,408.00
2022-07-27T11:38:22.309Z,380.00
2022-07-27T11:39:54.362Z,348.00
2022-07-27T11:40:53.772Z,320.00
2022-07-27T11:41:40.973Z,304.00
2022-07-27T11:42:23.613Z,300.00
2022-07-27T11:43:22.290Z,304.00
2022-07-27T11:44:22.292Z,316.00
2022-07-27T11:45:22.290Z,284.00
2022-07-27T11:46:22.385Z,256.00
2022-07-27T11:47:22.287Z,240.00
2022-07-27T11:48:22.289Z,240.00
2022-07-27T11:49:22.718Z,252.00
2022-07-27T11:50:22.285Z,236.00
2022-07-27T11:51:22.281Z,228.00
2022-07-27T11:52:22.277Z,224.00
2022-07-27T11:53:22.278Z,220.00
2022-07-27T11:54:22.283Z,204.00
2022-07-27T11:55:22.271Z,204.00
2022-07-27T11:56:22.272Z,208.00
2022-07-27T11:57:22.268Z,200.00
2022-07-27T11:58:22.271Z,200.00
2022-07-27T11:59:22.269Z,204.00
2022-07-27T12:00:22.267Z,196.00
2022-07-27T12:01:22.271Z,196.00
2022-07-27T12:02:22.667Z,192.00
2022-07-27T12:03:22.265Z,192.00
2022-07-27T12:04:22.261Z,192.00
2022-07-27T12:05:22.331Z,192.00
2022-07-27T12:06:22.259Z,192.00
2022-07-27T12:07:22.299Z,192.00
2022-07-27T12:08:22.260Z,196.00
2022-07-27T12:09:22.252Z,200.00
2022-07-27T12:10:22.253Z,216.00
2022-07-27T12:11:26.054Z,240.00
2022-07-27T12:12:22.299Z,256.00
2022-07-27T12:13:22.248Z,360.00
2022-07-27T12:14:22.244Z,420.00
2022-07-27T12:15:45.321Z,496.00
2022-07-27T12:16:22.298Z,500.00
2022-07-27T12:17:22.240Z,488.00
2022-07-27T12:18:22.241Z,504.00
2022-07-27T12:19:22.234Z,496.00
2022-07-27T12:20:22.234Z,444.00
2022-07-27T12:21:22.237Z,480.00
2022-07-27T12:22:22.230Z,464.00
2022-07-27T12:23:22.228Z,428.00
2022-07-27T12:24:22.230Z,400.00
2022-07-27T12:25:22.224Z,440.00
2022-07-27T12:26:22.237Z,476.00
2022-07-27T12:27:22.227Z,472.00
2022-07-27T12:28:22.225Z,424.00
2022-07-27T12:29:22.220Z,408.00
2022-07-27T12:30:22.410Z,428.00
2022-07-27T12:31:22.299Z,460.00
2022-07-27T12:32:22.217Z,428.00
2022-07-27T12:33:22.223Z,416.00
2022-07-27T12:34:22.222Z,392.00
2022-07-27T12:35:22.216Z,372.00
2022-07-27T12:36:22.217Z,352.00
2022-07-27T12:37:22.214Z,376.00
2022-07-27T12:38:22.210Z,388.00
2022-07-27T12:39:22.204Z,392.00
2022-07-27T12:40:22.209Z,380.00
2022-07-27T12:41:22.202Z,332.00
2022-07-27T12:42:22.202Z,328.00
2022-07-27T12:43:22.206Z,352.00
2022-07-27T12:44:22.203Z,356.00
2022-07-27T12:45:22.212Z,392.00
2022-07-27T12:46:22.364Z,420.00
2022-07-27T12:47:27.146Z,436.00
2022-07-27T12:48:22.194Z,452.00
2022-07-27T12:49:22.400Z,496.00
2022-07-27T12:50:22.191Z,444.00
2022-07-27T12:51:22.186Z,436.00
2022-07-27T12:52:22.188Z,432.00
2022-07-27T12:53:22.185Z,396.00
2022-07-27T12:54:22.183Z,360.00
2022-07-27T12:55:22.186Z,336.00
2022-07-27T12:56:26.985Z,296.00
2022-07-27T12:57:53.388Z,276.00
2022-07-27T12:58:22.185Z,264.00
2022-07-27T12:59:22.175Z,256.00
2022-07-27T13:00:22.339Z,260.00